Airfield :
LOGIN :

Register | Disclaimer

   EN    FR    IT 

 










Legend :    VFR   Marginal VFR   IFR   Intensive IFR   Very Intensive IFR
Visi :
Ceiling :
>= 8 km
>= 3000ft
5 to 8 km
1000 to 3000 ft
1500m to 5 km
500 to 1000 ft
800 to 1500m
200 to 500 ft
< 800m
< 200 ft
Symbols :   Thunderstorms  Fog  Heavy snow  Heavy precipitations  Wind > 20 kt
SIGMETs :     Misc.  Thunderstorms  Icing  Turbulence  Mountain Waves  Volcanic Ashes






- Airport Elevation : 909 ft
- IATA code : KSF


EDVK - Kassel Calden

CURRENT METAR :
  • 211220Z 22009KT 190V260 9999 SCT032 18/10 Q1018

EXPIRED METARs :
  • 211150Z 21011KT 9999 SCT030 17/11 Q1018
  • 211120Z 22010KT 9999 SCT030 18/12 Q1018
  • 211050Z 20008KT 170V240 9999 SCT028 18/13 Q1018
  • 211020Z 20008KT 9999 FEW023 SCT080 17/12 Q1018
  • 210950Z 13004KT 100V180 9999 FEW023 SCT085 16/13 Q1017

TAF TAF EDVK
Valid from the 21 at 12:00 until the 21 at 21:00 UTC


211100Z 2112/2121 18008KT 9999 SCT030



MET'MAP, your aeronautical weather chart ! - Copyright ORBIFLY December 2007 - Disclaimer

ORBIFLY MET'MAP TEAM :

Programming & Development : Alexandra Zaïnal
Concept & Development : Baudouin d'Aumeries
Co-Development & Prog : Marc-Olivier Méhu
Technical & hardware support : Manuel Goepfert

Contact : metmap@orbifly.com




SOURCES & CREDITS :

   NOAA